Aérodrome :
LOGIN :

S'inscrire | Disclaimer

   EN    FR    IT 

 










Légende :    VFR   VFR Marginal   IFR   IFR Intensif   IFR Très Intensif
Visi : 
Plafond : 
>= 8 km
>= 3000ft
5 à 8 km
1000 à 3000 ft
1500m à 5 km
500 à 1000 ft
800 à 1500m
200 à 500 ft
< 800m
< 200 ft
Symboles :   Orages  Brouillard  Fortes neiges  Fortes précipitations  Vent > 20 kt
SIGMETs :   Divers  Orages  Givrage  Turbulence  Onde Orograph.  Cendres Volcan.






- Altitude de l'aérodrome : 55 ft
- Code IATA : DSA


EGCN - Robin Hood Doncaster Sheffield

DERNIER METAR :
  • 012320Z 18011KT CAVOK 15/09 Q1016

METARs EXPIRÉS :
  • 012250Z 17008KT CAVOK 16/09 Q1016
  • 011620Z 22007KT 9999 VCSH FEW035 18/10 Q1015
  • 012150Z 22008KT CAVOK 16/09 Q1017
  • 012120Z 22009KT CAVOK 16/09 Q1017
  • 012050Z 21008KT 9999 SCT044 17/09 Q1016

TAF TAF EGCN
Valide du 01 à 18h jusqu'au 02 à 18h UTC


011654Z 0118/0218 22010KT 9999 SCT030
TEMPO 0118/0120 7000 SHRA
PROB30
TEMPO 0122/0206 7000 RA BKN014
PROB40
TEMPO 0200/0210 23015G25KT
TEMPO 0206/0212 8000 -RA BKN014
PROB30
TEMPO 0206/0209 4000 RADZ BKN008
PROB30
TEMPO 0212/0218 7000 SHRA
BECMG 0215/0218 28008KT



MET'MAP, la Météo Aéronautique d'un coup d'oeil ! - Copyright ORBIFLY Décembre 2007 - Disclaimer

ORBIFLY MET'MAP TEAM :

Programmation & Développement : Alexandra Zaïnal
Sur une idée originale de : Baudouin d'Aumeries
Soutien technique & logistique : Manuel Goepfert
Assistance : Marc-Olivier Méhu




SOURCES & CREDITS :

   NOAA